createdAt,value
2023-01-26T00:00:45.394Z,17.17
2023-01-26T00:03:47.822Z,15.13
2023-01-26T00:06:50.030Z,15.20
2023-01-26T00:09:52.005Z,12.50
2023-01-26T00:12:54.037Z,14.75
2023-01-26T00:15:56.072Z,16.13
2023-01-26T00:18:58.095Z,17.30
2023-01-26T00:22:00.120Z,15.18
2023-01-26T00:25:02.108Z,13.82
2023-01-26T00:28:04.163Z,13.52
2023-01-26T00:31:07.109Z,12.95
2023-01-26T00:34:09.179Z,14.02
2023-01-26T00:37:11.267Z,14.13
2023-01-26T00:40:13.581Z,12.03
2023-01-26T00:43:15.754Z,12.40
2023-01-26T00:46:17.796Z,12.40
2023-01-26T00:49:19.810Z,13.13
2023-01-26T00:52:21.813Z,10.80
2023-01-26T00:55:32.199Z,10.90
2023-01-26T00:58:35.333Z,12.65
2023-01-26T01:01:37.343Z,13.35
2023-01-26T01:04:39.389Z,11.57
2023-01-26T01:07:41.451Z,12.02
2023-01-26T01:10:43.465Z,9.17
2023-01-26T01:13:45.553Z,11.20
2023-01-26T01:16:48.499Z,11.40
2023-01-26T01:19:50.569Z,11.87
2023-01-26T01:22:56.780Z,9.90
2023-01-26T01:25:59.190Z,11.43
2023-01-26T01:29:02.325Z,12.18
2023-01-26T01:32:04.520Z,11.52
2023-01-26T01:35:06.885Z,11.30
2023-01-26T01:38:08.925Z,12.40
2023-01-26T01:41:11.176Z,9.57
2023-01-26T01:44:18.708Z,10.93
2023-01-26T01:47:26.795Z,9.63
2023-01-26T01:50:30.717Z,11.77
2023-01-26T01:53:41.005Z,10.60
2023-01-26T01:56:44.889Z,11.07
2023-01-26T01:59:51.665Z,12.25
2023-01-26T02:03:19.488Z,14.55
2023-01-26T02:06:40.881Z,13.15
2023-01-26T02:10:02.480Z,14.38
2023-01-26T02:13:05.566Z,11.87
2023-01-26T02:16:07.827Z,12.18
2023-01-26T02:19:14.718Z,11.52
2023-01-26T02:22:45.850Z,12.40
2023-01-26T02:25:49.332Z,11.05
2023-01-26T02:28:51.546Z,11.48
2023-01-26T02:31:54.252Z,12.60
2023-01-26T02:34:57.830Z,12.85
2023-01-26T02:38:00.038Z,12.52
2023-01-26T02:41:06.929Z,13.02
2023-01-26T02:44:10.224Z,11.90
2023-01-26T02:47:15.924Z,11.00
2023-01-26T02:50:18.200Z,12.43
2023-01-26T02:53:20.296Z,12.63
2023-01-26T02:56:22.369Z,13.07
2023-01-26T02:59:26.020Z,11.60
2023-01-26T03:02:28.032Z,12.18
2023-01-26T03:05:30.217Z,11.43
2023-01-26T03:08:32.292Z,12.15
2023-01-26T03:11:42.148Z,11.85
2023-01-26T03:14:44.344Z,12.03
2023-01-26T03:17:46.368Z,14.05
2023-01-26T03:21:07.002Z,11.88
2023-01-26T03:24:31.464Z,11.03
2023-01-26T03:27:41.201Z,11.70
2023-01-26T03:30:43.343Z,12.80
2023-01-26T03:33:45.483Z,12.68
2023-01-26T03:36:48.065Z,13.13
2023-01-26T03:40:11.227Z,12.38
2023-01-26T03:43:32.441Z,12.07
2023-01-26T03:46:53.583Z,10.57
2023-01-26T03:50:14.537Z,12.98
2023-01-26T03:53:39.281Z,13.85
2023-01-26T03:56:44.735Z,12.87
2023-01-26T03:59:50.762Z,12.82
2023-01-26T04:03:15.021Z,11.50
2023-01-26T04:06:35.773Z,11.63
2023-01-26T04:09:39.657Z,15.90
2023-01-26T04:12:41.830Z,13.07
2023-01-26T04:16:10.803Z,12.23
2023-01-26T04:19:31.603Z,12.27
2023-01-26T04:22:43.658Z,11.32
2023-01-26T04:25:45.692Z,12.90
2023-01-26T04:28:47.872Z,12.57
2023-01-26T04:31:49.964Z,12.23
2023-01-26T04:34:55.329Z,11.88
2023-01-26T04:37:58.789Z,13.35
2023-01-26T04:41:01.799Z,11.85
2023-01-26T04:44:05.493Z,13.02
2023-01-26T04:47:07.546Z,12.07
2023-01-26T04:50:10.496Z,12.50
2023-01-26T04:53:12.722Z,13.52
2023-01-26T04:56:19.104Z,12.75
2023-01-26T04:59:21.842Z,13.03
2023-01-26T05:02:23.952Z,14.38
2023-01-26T05:05:25.955Z,13.60
2023-01-26T05:08:28.174Z,15.68
2023-01-26T05:11:30.213Z,12.95
2023-01-26T05:14:32.157Z,18.65
2023-01-26T05:17:54.377Z,14.55
2023-01-26T05:21:25.179Z,13.13
2023-01-26T05:24:27.322Z,14.20
2023-01-26T05:27:35.060Z,15.13
2023-01-26T05:30:37.721Z,13.63
2023-01-26T05:33:40.404Z,15.13
2023-01-26T05:36:44.216Z,14.25
2023-01-26T05:39:46.216Z,13.82
2023-01-26T05:42:48.700Z,14.50
2023-01-26T05:46:03.432Z,16.17
2023-01-26T05:49:05.542Z,13.68
2023-01-26T05:52:11.388Z,12.63
2023-01-26T05:55:15.544Z,14.23
2023-01-26T05:58:18.196Z,15.82
2023-01-26T06:01:20.206Z,13.67
2023-01-26T06:04:28.732Z,15.48
2023-01-26T06:07:33.884Z,16.40
2023-01-26T06:10:58.561Z,13.93
2023-01-26T06:14:18.491Z,14.68
2023-01-26T06:17:20.687Z,15.85
2023-01-26T06:20:26.853Z,18.40
2023-01-26T06:23:33.129Z,15.30
2023-01-26T06:26:37.086Z,15.73
2023-01-26T06:29:39.642Z,16.85
2023-01-26T06:32:41.976Z,16.80
2023-01-26T06:35:44.171Z,16.63
2023-01-26T06:38:48.700Z,22.83
2023-01-26T06:41:50.881Z,18.65
2023-01-26T06:44:53.227Z,20.38
2023-01-26T06:47:55.399Z,15.93
2023-01-26T06:50:58.763Z,16.27
2023-01-26T06:54:01.180Z,18.33
2023-01-26T06:57:09.618Z,16.15
2023-01-26T07:00:21.585Z,16.40
2023-01-26T07:03:56.292Z,17.63
2023-01-26T07:06:58.627Z,15.52
2023-01-26T07:10:00.809Z,16.27
2023-01-26T07:13:03.994Z,15.43
2023-01-26T07:16:13.166Z,18.55
2023-01-26T07:19:15.528Z,18.02
2023-01-26T07:22:17.862Z,16.17
2023-01-26T07:25:20.082Z,17.17
2023-01-26T07:28:22.329Z,16.02
2023-01-26T07:31:24.600Z,18.70
2023-01-26T07:34:26.735Z,17.37
2023-01-26T07:37:29.200Z,19.23
2023-01-26T07:40:31.372Z,19.70
2023-01-26T07:43:34.566Z,21.90
2023-01-26T07:46:40.074Z,22.13
2023-01-26T07:49:43.565Z,20.45
2023-01-26T07:52:46.340Z,22.17
2023-01-26T07:55:49.767Z,24.47
2023-01-26T07:58:52.713Z,24.63
2023-01-26T08:01:54.940Z,24.45
2023-01-26T08:04:57.180Z,29.07
2023-01-26T08:08:00.113Z,29.85
2023-01-26T08:11:02.642Z,24.63
2023-01-26T08:14:04.724Z,24.45
2023-01-26T08:17:06.840Z,24.00
2023-01-26T08:20:09.703Z,24.15
2023-01-26T08:23:12.535Z,22.83
2023-01-26T08:26:14.859Z,22.97
2023-01-26T08:29:17.470Z,22.75
2023-01-26T08:32:19.678Z,26.10
2023-01-26T08:35:21.811Z,25.40
2023-01-26T08:38:23.997Z,25.00
2023-01-26T08:41:26.285Z,22.80
2023-01-26T08:44:29.874Z,23.45
2023-01-26T08:47:32.398Z,26.52
2023-01-26T08:50:34.986Z,24.10
2023-01-26T08:53:37.768Z,24.88
2023-01-26T08:56:39.959Z,22.30
2023-01-26T08:59:42.202Z,19.95
2023-01-26T09:02:44.521Z,21.45
2023-01-26T09:05:46.846Z,22.00
2023-01-26T09:08:48.993Z,20.40
2023-01-26T09:11:51.205Z,22.02
2023-01-26T09:14:53.426Z,19.95
2023-01-26T09:17:55.539Z,21.52
2023-01-26T09:21:02.708Z,22.95
2023-01-26T09:24:05.386Z,21.33
2023-01-26T09:27:08.859Z,23.40
2023-01-26T09:30:11.209Z,21.65
2023-01-26T09:33:13.382Z,22.83
2023-01-26T09:36:16.800Z,24.70
2023-01-26T09:39:19.164Z,24.85
2023-01-26T09:42:21.343Z,25.77
2023-01-26T09:45:29.363Z,22.67
2023-01-26T09:48:34.685Z,22.40
2023-01-26T09:51:38.919Z,24.65
2023-01-26T09:54:49.249Z,21.52
2023-01-26T09:57:53.448Z,23.13
2023-01-26T10:00:58.635Z,24.00
2023-01-26T10:04:13.379Z,21.67
2023-01-26T10:07:15.759Z,21.23
2023-01-26T10:10:29.849Z,18.02
2023-01-26T10:13:31.976Z,20.88
2023-01-26T10:16:34.398Z,21.83
2023-01-26T10:19:46.295Z,20.85
2023-01-26T10:22:56.297Z,21.38
2023-01-26T10:26:16.791Z,22.08
2023-01-26T10:29:19.180Z,19.10
2023-01-26T10:32:21.358Z,17.67
2023-01-26T10:35:24.681Z,19.00
2023-01-26T10:38:26.984Z,19.50
2023-01-26T10:41:29.352Z,19.70
2023-01-26T10:44:31.482Z,18.58
2023-01-26T10:47:33.580Z,19.33
2023-01-26T10:50:35.836Z,20.73
2023-01-26T10:53:37.974Z,18.88
2023-01-26T10:56:54.220Z,21.65
2023-01-26T10:59:57.748Z,17.63
2023-01-26T11:03:20.303Z,17.55
2023-01-26T11:06:27.474Z,18.73
2023-01-26T11:09:31.755Z,18.77
2023-01-26T11:12:34.214Z,16.95
2023-01-26T11:15:41.284Z,17.70
2023-01-26T11:18:46.519Z,21.20
2023-01-26T11:21:54.034Z,20.17
2023-01-26T11:24:56.240Z,20.17
2023-01-26T11:28:00.394Z,22.10
2023-01-26T11:31:18.626Z,22.00
2023-01-26T11:34:45.935Z,16.58
2023-01-26T11:37:49.391Z,22.92
2023-01-26T11:41:27.128Z,21.03
2023-01-26T11:44:29.136Z,21.23
2023-01-26T11:47:46.519Z,19.27
2023-01-26T11:51:07.221Z,19.70
2023-01-26T11:54:09.749Z,19.52
2023-01-26T11:57:21.199Z,21.20
2023-01-26T12:00:39.415Z,21.13
2023-01-26T12:03:44.386Z,20.87
2023-01-26T12:06:48.562Z,20.48
2023-01-26T12:09:52.976Z,17.17
2023-01-26T12:12:58.889Z,19.67
2023-01-26T12:16:03.763Z,18.23
2023-01-26T12:19:11.135Z,18.55
2023-01-26T12:22:13.709Z,18.63
2023-01-26T12:25:35.808Z,17.77
2023-01-26T12:28:43.755Z,19.95
2023-01-26T12:31:57.902Z,28.63
2023-01-26T12:35:00.230Z,20.50
2023-01-26T12:38:18.133Z,20.23
2023-01-26T12:41:33.533Z,18.95
2023-01-26T12:44:43.251Z,18.50
2023-01-26T12:47:53.513Z,19.65
2023-01-26T12:50:58.852Z,22.10
2023-01-26T12:54:04.639Z,17.92
2023-01-26T12:57:11.689Z,18.27
2023-01-26T13:00:22.713Z,17.95
2023-01-26T13:03:27.026Z,16.02
2023-01-26T13:06:29.455Z,13.80
2023-01-26T13:09:31.646Z,16.92
2023-01-26T13:12:49.268Z,16.45
2023-01-26T13:16:11.403Z,18.50
2023-01-26T13:19:33.503Z,17.27
2023-01-26T13:22:40.282Z,21.20
2023-01-26T13:25:54.142Z,17.17
2023-01-26T13:29:17.227Z,17.30
2023-01-26T13:32:19.263Z,17.90
2023-01-26T13:35:23.439Z,17.65
2023-01-26T13:38:37.330Z,17.67
2023-01-26T13:41:47.449Z,18.33
2023-01-26T13:45:12.971Z,18.67
2023-01-26T13:48:18.829Z,16.00
2023-01-26T13:51:23.508Z,16.48
2023-01-26T13:54:26.860Z,16.60
2023-01-26T13:57:30.006Z,17.77
2023-01-26T14:00:33.253Z,17.58
2023-01-26T14:03:35.309Z,18.15
2023-01-26T14:06:37.828Z,19.05
2023-01-26T14:09:47.650Z,18.40
2023-01-26T14:12:51.994Z,20.95
2023-01-26T14:16:00.709Z,20.13
2023-01-26T14:19:05.909Z,21.33
2023-01-26T14:22:12.735Z,21.88
2023-01-26T14:25:19.509Z,23.75
2023-01-26T14:28:22.374Z,21.70
2023-01-26T14:31:25.955Z,20.50
2023-01-26T14:34:29.687Z,21.88
2023-01-26T14:37:31.705Z,21.88
2023-01-26T14:40:33.762Z,20.30
2023-01-26T14:43:35.910Z,24.55
2023-01-26T14:46:38.183Z,19.60
2023-01-26T14:49:43.479Z,22.23
2023-01-26T14:52:46.750Z,19.88
2023-01-26T14:55:49.464Z,24.67
2023-01-26T14:58:54.581Z,25.55
2023-01-26T15:02:16.531Z,26.55
2023-01-26T15:05:20.911Z,25.85
2023-01-26T15:08:24.235Z,22.02
2023-01-26T15:11:46.350Z,21.97
2023-01-26T15:14:49.902Z,20.58
2023-01-26T15:18:03.041Z,22.10
2023-01-26T15:21:21.982Z,24.23
2023-01-26T15:24:24.077Z,22.80
2023-01-26T15:27:30.531Z,20.63
2023-01-26T15:30:34.212Z,22.00
2023-01-26T15:33:36.415Z,23.55
2023-01-26T15:36:49.162Z,24.55
2023-01-26T15:39:51.314Z,21.77
2023-01-26T15:43:05.440Z,21.37
2023-01-26T15:46:08.190Z,22.65
2023-01-26T15:49:10.574Z,21.10
2023-01-26T15:52:14.491Z,23.07
2023-01-26T15:55:25.953Z,26.10
2023-01-26T15:58:29.064Z,20.52
2023-01-26T16:01:31.172Z,23.25
2023-01-26T16:04:33.184Z,23.50
2023-01-26T16:07:35.291Z,24.75
2023-01-26T16:10:37.749Z,23.42
2023-01-26T16:13:40.290Z,28.77
2023-01-26T16:16:42.650Z,36.35
2023-01-26T16:19:45.176Z,28.83
2023-01-26T16:22:47.349Z,28.47
2023-01-26T16:25:50.052Z,34.78
2023-01-26T16:28:52.164Z,34.03
2023-01-26T16:31:54.490Z,40.55
2023-01-26T16:34:56.894Z,34.55
2023-01-26T16:37:58.980Z,31.63
2023-01-26T16:41:01.089Z,34.33
2023-01-26T16:44:03.505Z,29.43
2023-01-26T16:47:05.826Z,25.65
2023-01-26T16:50:08.105Z,23.13
2023-01-26T16:53:17.793Z,21.37
2023-01-26T16:56:20.278Z,18.85
2023-01-26T16:59:22.329Z,23.42
2023-01-26T17:02:26.394Z,27.42
2023-01-26T17:05:31.053Z,28.45
2023-01-26T17:08:33.301Z,24.40
2023-01-26T17:11:35.448Z,24.38
2023-01-26T17:14:37.451Z,21.20
2023-01-26T17:17:39.596Z,16.67
2023-01-26T17:20:42.036Z,16.25
2023-01-26T17:23:47.131Z,14.77
2023-01-26T17:26:49.237Z,20.70
2023-01-26T17:29:51.304Z,20.73
2023-01-26T17:32:53.316Z,26.13
2023-01-26T17:36:02.268Z,19.33
2023-01-26T17:39:04.387Z,20.10
2023-01-26T17:42:06.388Z,18.58
2023-01-26T17:45:10.192Z,16.23
2023-01-26T17:48:12.509Z,15.00
2023-01-26T17:51:16.821Z,15.75
2023-01-26T17:54:18.853Z,16.20
2023-01-26T17:57:20.865Z,14.30
2023-01-26T18:00:22.938Z,16.00
2023-01-26T18:03:26.995Z,14.88
2023-01-26T18:06:29.276Z,14.93
2023-01-26T18:09:31.431Z,16.15
2023-01-26T18:12:33.462Z,14.88
2023-01-26T18:15:38.689Z,15.37
2023-01-26T18:18:40.777Z,12.70
2023-01-26T18:21:42.861Z,14.50
2023-01-26T18:24:44.865Z,16.53
2023-01-26T18:27:47.384Z,14.73
2023-01-26T18:30:49.515Z,16.25
2023-01-26T18:33:51.936Z,18.25
2023-01-26T18:36:54.063Z,18.48
2023-01-26T18:39:56.368Z,20.77
2023-01-26T18:42:58.410Z,18.30
2023-01-26T18:46:01.760Z,14.37
2023-01-26T18:49:03.880Z,16.52
2023-01-26T18:52:06.005Z,14.45
2023-01-26T18:55:08.817Z,14.03
2023-01-26T18:58:10.940Z,15.45
2023-01-26T19:01:14.236Z,16.35
2023-01-26T19:04:18.242Z,16.60
2023-01-26T19:07:20.609Z,16.20
2023-01-26T19:10:22.659Z,16.80
2023-01-26T19:13:24.627Z,16.65
2023-01-26T19:16:27.042Z,19.10
2023-01-26T19:19:29.497Z,15.18
2023-01-26T19:22:31.511Z,20.45
2023-01-26T19:25:36.018Z,21.33
2023-01-26T19:28:41.414Z,20.73
2023-01-26T19:31:43.551Z,23.00
2023-01-26T19:34:45.738Z,16.05
2023-01-26T19:37:47.800Z,19.73
2023-01-26T19:40:50.877Z,22.35
2023-01-26T19:43:53.114Z,11.57
2023-01-26T19:46:55.895Z,21.70
2023-01-26T19:49:58.680Z,18.38
2023-01-26T19:53:00.700Z,16.77
2023-01-26T19:56:22.537Z,16.00
2023-01-26T19:59:26.070Z,7.97
2023-01-26T20:02:28.119Z,18.05
2023-01-26T20:05:30.207Z,13.95
2023-01-26T20:08:32.284Z,16.48
2023-01-26T20:11:34.342Z,14.82
2023-01-26T20:14:36.467Z,16.88
2023-01-26T20:17:38.442Z,12.60
2023-01-26T20:20:40.485Z,13.23
2023-01-26T20:23:53.615Z,14.13
2023-01-26T20:26:56.618Z,11.63
2023-01-26T20:29:58.593Z,13.70
2023-01-26T20:33:02.249Z,11.07
2023-01-26T20:36:12.540Z,13.27
2023-01-26T20:39:16.436Z,13.23
2023-01-26T20:42:19.005Z,14.05
2023-01-26T20:45:21.063Z,10.70
2023-01-26T20:48:23.042Z,11.30
2023-01-26T20:51:28.766Z,14.38
2023-01-26T20:54:30.911Z,15.20
2023-01-26T20:57:32.985Z,13.70
2023-01-26T21:00:36.147Z,13.82
2023-01-26T21:03:38.677Z,11.02
2023-01-26T21:06:41.787Z,14.07
2023-01-26T21:09:43.759Z,15.95
2023-01-26T21:12:45.720Z,14.82
2023-01-26T21:15:50.963Z,15.10
2023-01-26T21:18:53.065Z,16.57
2023-01-26T21:21:55.087Z,18.88
2023-01-26T21:24:57.093Z,16.73
2023-01-26T21:27:59.051Z,17.07
2023-01-26T21:31:04.234Z,19.58
2023-01-26T21:34:06.289Z,16.67
2023-01-26T21:37:08.302Z,19.77
2023-01-26T21:40:11.015Z,18.88
2023-01-26T21:43:13.225Z,20.45
2023-01-26T21:46:15.221Z,20.42
2023-01-26T21:49:17.345Z,17.63
2023-01-26T21:52:38.034Z,9.98
2023-01-26T21:55:40.791Z,19.17
2023-01-26T21:58:56.699Z,19.37
2023-01-26T22:01:58.846Z,18.35
2023-01-26T22:05:00.866Z,20.05
2023-01-26T22:08:02.838Z,19.80
2023-01-26T22:11:04.963Z,21.42
2023-01-26T22:14:07.465Z,19.35
2023-01-26T22:17:09.450Z,20.38
2023-01-26T22:20:12.272Z,18.83
2023-01-26T22:23:14.447Z,19.52
2023-01-26T22:26:17.628Z,20.15
2023-01-26T22:29:19.691Z,18.73
2023-01-26T22:32:21.804Z,18.70
2023-01-26T22:35:23.827Z,19.85
2023-01-26T22:38:25.971Z,18.42
2023-01-26T22:41:30.197Z,18.88
2023-01-26T22:44:32.325Z,16.95
2023-01-26T22:47:35.875Z,19.00
2023-01-26T22:50:37.928Z,16.27
2023-01-26T22:53:40.355Z,17.85
2023-01-26T22:56:42.369Z,16.80
2023-01-26T22:59:44.405Z,20.60
2023-01-26T23:02:46.398Z,18.38
2023-01-26T23:05:48.401Z,18.55
2023-01-26T23:08:50.509Z,15.45
2023-01-26T23:11:52.521Z,20.02
2023-01-26T23:14:54.566Z,19.73
2023-01-26T23:17:56.521Z,18.55
2023-01-26T23:20:58.789Z,20.17
2023-01-26T23:24:00.815Z,20.23
2023-01-26T23:27:02.820Z,20.63
2023-01-26T23:30:05.040Z,18.97
2023-01-26T23:33:07.038Z,19.17
2023-01-26T23:36:10.285Z,20.02
2023-01-26T23:39:12.402Z,19.65
2023-01-26T23:42:15.891Z,19.73
2023-01-26T23:45:17.922Z,18.88
2023-01-26T23:48:20.104Z,19.23
2023-01-26T23:51:22.162Z,16.00
2023-01-26T23:54:24.176Z,19.02
2023-01-26T23:57:26.549Z,19.73
